createdAt,value
2017-05-26T00:00:48.324Z,11.20
2017-05-26T00:03:16.667Z,11.20
2017-05-26T00:05:44.964Z,11.30
2017-05-26T00:08:13.262Z,11.40
2017-05-26T00:10:41.589Z,11.40
2017-05-26T00:13:09.888Z,11.50
2017-05-26T00:15:38.207Z,11.50
2017-05-26T00:18:06.517Z,11.50
2017-05-26T00:20:34.843Z,11.40
2017-05-26T00:23:03.147Z,11.30
2017-05-26T00:25:31.468Z,11.10
2017-05-26T00:27:59.772Z,11.10
2017-05-26T00:30:28.120Z,11.10
2017-05-26T00:32:56.427Z,11.20
2017-05-26T00:35:24.730Z,11.10
2017-05-26T00:37:53.048Z,11.10
2017-05-26T00:40:21.355Z,11.10
2017-05-26T00:42:49.676Z,11.00
2017-05-26T00:45:17.982Z,10.90
2017-05-26T00:47:46.301Z,10.80
2017-05-26T00:50:14.621Z,10.70
2017-05-26T00:52:42.939Z,10.60
2017-05-26T00:55:11.237Z,10.60
2017-05-26T00:57:39.563Z,10.60
2017-05-26T01:00:07.868Z,10.60
2017-05-26T01:02:36.172Z,10.60
2017-05-26T01:05:04.504Z,10.50
2017-05-26T01:07:32.813Z,10.50
2017-05-26T01:10:01.142Z,10.60
2017-05-26T01:12:29.440Z,10.60
2017-05-26T01:14:57.763Z,10.60
2017-05-26T01:17:26.068Z,10.50
2017-05-26T01:19:54.392Z,10.50
2017-05-26T01:22:22.699Z,10.50
2017-05-26T01:24:51.037Z,10.50
2017-05-26T01:27:19.344Z,10.50
2017-05-26T01:29:47.669Z,10.50
2017-05-26T01:32:16.280Z,10.50
2017-05-26T01:34:44.591Z,10.50
2017-05-26T01:37:12.915Z,10.60
2017-05-26T01:39:41.220Z,10.60
2017-05-26T01:42:09.563Z,10.60
2017-05-26T01:44:37.867Z,10.60
2017-05-26T01:47:06.197Z,10.60
2017-05-26T01:49:34.499Z,10.60
2017-05-26T01:52:02.846Z,10.50
2017-05-26T01:54:31.151Z,10.50
2017-05-26T01:56:59.460Z,10.50
2017-05-26T01:59:27.785Z,10.60
2017-05-26T02:01:56.092Z,10.60
2017-05-26T02:04:24.422Z,10.70
2017-05-26T02:06:52.729Z,10.70
2017-05-26T02:09:21.055Z,10.80
2017-05-26T02:11:49.363Z,10.70
2017-05-26T02:14:17.689Z,10.50
2017-05-26T02:16:45.991Z,10.30
2017-05-26T02:19:14.333Z,10.20
2017-05-26T02:21:42.640Z,10.10
2017-05-26T02:24:10.951Z,10.10
2017-05-26T02:26:39.276Z,10.00
2017-05-26T02:29:07.575Z,9.90
2017-05-26T02:31:35.892Z,9.90
2017-05-26T02:34:04.201Z,10.00
2017-05-26T02:36:32.527Z,10.00
2017-05-26T02:39:00.836Z,10.00
2017-05-26T02:41:29.160Z,10.10
2017-05-26T02:43:57.459Z,10.10
2017-05-26T02:46:25.921Z,10.00
2017-05-26T02:48:54.232Z,10.00
2017-05-26T02:51:22.536Z,9.80
2017-05-26T02:53:50.859Z,9.70
2017-05-26T02:56:19.158Z,9.60
2017-05-26T02:58:47.479Z,9.50
2017-05-26T03:01:15.780Z,9.50
2017-05-26T03:03:44.106Z,9.50
2017-05-26T03:06:12.407Z,9.50
2017-05-26T03:08:40.825Z,9.50
2017-05-26T03:11:09.127Z,9.50
2017-05-26T03:13:37.426Z,9.40
2017-05-26T03:16:05.748Z,9.30
2017-05-26T03:18:34.047Z,9.30
2017-05-26T03:21:02.362Z,9.30
2017-05-26T03:23:30.664Z,9.40
2017-05-26T03:25:58.979Z,9.40
2017-05-26T03:28:27.285Z,9.40
2017-05-26T03:30:55.615Z,9.40
2017-05-26T03:33:23.920Z,9.50
2017-05-26T03:35:52.261Z,9.40
2017-05-26T03:38:20.563Z,9.40
2017-05-26T03:40:48.855Z,9.30
2017-05-26T03:43:17.175Z,9.40
2017-05-26T03:45:45.479Z,9.40
2017-05-26T03:48:13.800Z,9.50
2017-05-26T03:50:42.108Z,9.70
2017-05-26T03:53:10.436Z,10.00
2017-05-26T03:55:38.740Z,10.20
2017-05-26T03:58:07.065Z,10.40
2017-05-26T04:00:35.379Z,10.60
2017-05-26T04:03:03.732Z,10.70
2017-05-26T04:05:32.039Z,10.80
2017-05-26T04:08:00.360Z,11.00
2017-05-26T04:10:28.696Z,11.20
2017-05-26T04:12:57.000Z,11.30
2017-05-26T04:15:25.328Z,11.50
2017-05-26T04:17:53.635Z,11.60
2017-05-26T04:20:21.968Z,12.00
2017-05-26T04:22:50.289Z,12.40
2017-05-26T04:25:18.645Z,12.70
2017-05-26T04:27:46.955Z,12.80
2017-05-26T04:30:15.299Z,12.90
2017-05-26T04:32:43.630Z,13.00
2017-05-26T04:35:11.937Z,13.30
2017-05-26T04:37:40.277Z,13.70
2017-05-26T04:40:08.608Z,14.20
2017-05-26T04:42:36.936Z,14.70
2017-05-26T04:45:05.666Z,15.20
2017-05-26T04:47:34.010Z,15.60
2017-05-26T04:50:02.320Z,16.10
2017-05-26T04:52:30.669Z,16.70
2017-05-26T04:54:58.990Z,17.10
2017-05-26T04:57:27.345Z,17.40
2017-05-26T04:59:55.656Z,17.60
2017-05-26T05:02:23.982Z,17.90
2017-05-26T05:04:52.312Z,18.20
2017-05-26T05:07:20.615Z,18.70
2017-05-26T05:09:48.948Z,19.30
2017-05-26T05:12:17.254Z,19.80
2017-05-26T05:14:45.580Z,20.10
2017-05-26T05:17:13.897Z,20.40
2017-05-26T05:19:42.265Z,20.60
2017-05-26T05:22:10.577Z,21.10
2017-05-26T05:24:38.892Z,21.60
2017-05-26T05:27:07.268Z,22.20
2017-05-26T05:29:35.581Z,22.60
2017-05-26T05:32:03.918Z,23.10
2017-05-26T05:34:32.232Z,23.70
2017-05-26T05:37:00.572Z,24.30
2017-05-26T05:39:28.884Z,24.90
2017-05-26T05:41:57.229Z,25.40
2017-05-26T05:44:25.571Z,25.60
2017-05-26T05:46:53.907Z,25.80
2017-05-26T05:49:22.240Z,25.70
2017-05-26T05:51:50.560Z,25.60
2017-05-26T05:54:18.900Z,25.60
2017-05-26T05:56:47.207Z,25.80
2017-05-26T05:59:15.541Z,26.20
2017-05-26T06:01:43.853Z,26.30
2017-05-26T06:04:12.191Z,26.30
2017-05-26T06:06:40.528Z,26.50
2017-05-26T06:09:08.915Z,26.60
2017-05-26T06:11:37.254Z,26.50
2017-05-26T06:14:05.568Z,26.60
2017-05-26T06:16:33.905Z,26.50
2017-05-26T06:19:02.227Z,26.50
2017-05-26T06:21:31.436Z,26.60
2017-05-26T06:23:59.756Z,26.50
2017-05-26T06:26:28.091Z,26.50
2017-05-26T06:28:56.408Z,26.80
2017-05-26T06:31:24.769Z,26.90
2017-05-26T06:33:53.109Z,26.80
2017-05-26T06:36:21.415Z,26.30
2017-05-26T06:38:49.745Z,26.40
2017-05-26T06:41:18.064Z,26.60
2017-05-26T06:43:46.404Z,26.70
2017-05-26T06:46:14.736Z,27.00
2017-05-26T06:48:43.107Z,27.00
2017-05-26T06:51:11.412Z,26.60
2017-05-26T06:53:39.722Z,26.50
2017-05-26T06:56:08.083Z,26.00
2017-05-26T06:58:36.441Z,25.40
2017-05-26T07:01:04.785Z,25.00
2017-05-26T07:03:33.093Z,25.10
2017-05-26T07:06:01.440Z,25.20
2017-05-26T07:08:29.756Z,25.60
2017-05-26T07:10:58.128Z,25.50
2017-05-26T07:13:26.452Z,25.40
2017-05-26T07:15:54.803Z,25.30
2017-05-26T07:18:23.104Z,25.60
2017-05-26T07:20:51.408Z,25.90
2017-05-26T07:23:19.744Z,26.10
2017-05-26T07:25:48.053Z,26.40
2017-05-26T07:28:16.381Z,26.50
2017-05-26T07:30:44.689Z,26.80
2017-05-26T07:33:13.028Z,27.00
2017-05-26T07:35:41.355Z,26.80
2017-05-26T07:38:09.693Z,26.50
2017-05-26T07:40:38.009Z,26.30
2017-05-26T07:43:06.371Z,26.20
2017-05-26T07:45:34.684Z,26.30
2017-05-26T07:48:02.989Z,26.40
2017-05-26T07:50:31.390Z,26.50
2017-05-26T07:52:59.702Z,26.50
2017-05-26T07:55:28.039Z,26.40
2017-05-26T07:57:56.362Z,26.80
2017-05-26T08:00:24.696Z,27.10
2017-05-26T08:02:53.023Z,27.10
2017-05-26T08:05:21.380Z,27.30
2017-05-26T08:07:49.705Z,27.70
2017-05-26T08:10:18.040Z,28.20
2017-05-26T08:12:46.369Z,28.30
2017-05-26T08:15:14.681Z,28.40
2017-05-26T08:17:43.037Z,28.50
2017-05-26T08:20:11.348Z,28.50
2017-05-26T08:22:39.677Z,28.80
2017-05-26T08:25:08.017Z,29.20
2017-05-26T08:27:36.377Z,29.70
2017-05-26T08:30:04.688Z,30.00
2017-05-26T08:32:33.039Z,30.40
2017-05-26T08:35:01.352Z,30.70
2017-05-26T08:37:29.663Z,30.60
2017-05-26T08:39:58.010Z,30.60
2017-05-26T08:42:26.327Z,30.80
2017-05-26T08:44:54.674Z,30.20
2017-05-26T08:47:22.992Z,29.90
2017-05-26T08:49:51.328Z,29.90
2017-05-26T08:52:19.648Z,30.30
2017-05-26T08:54:47.989Z,30.50
2017-05-26T08:57:16.308Z,30.50
2017-05-26T08:59:44.664Z,30.90
2017-05-26T09:02:12.976Z,30.80
2017-05-26T09:04:41.295Z,30.00
2017-05-26T09:07:09.629Z,29.60
2017-05-26T09:09:37.982Z,29.10
2017-05-26T09:12:06.321Z,28.70
2017-05-26T09:14:34.633Z,28.70
2017-05-26T09:17:02.989Z,28.70
2017-05-26T09:19:31.312Z,29.40
2017-05-26T09:21:59.668Z,29.70
2017-05-26T09:24:27.985Z,30.00
2017-05-26T09:26:56.321Z,29.40
2017-05-26T09:29:24.664Z,29.20
2017-05-26T09:31:52.976Z,29.00
2017-05-26T09:34:21.326Z,28.60
2017-05-26T09:36:50.068Z,28.80
2017-05-26T09:39:18.401Z,29.50
2017-05-26T09:41:46.724Z,30.00
2017-05-26T09:44:15.059Z,30.40
2017-05-26T09:46:43.373Z,30.50
2017-05-26T09:49:11.736Z,30.80
2017-05-26T09:51:40.047Z,30.90
2017-05-26T09:54:08.360Z,31.10
2017-05-26T09:56:36.691Z,31.50
2017-05-26T09:59:05.008Z,31.90
2017-05-26T10:01:33.347Z,31.60
2017-05-26T10:04:01.672Z,31.40
2017-05-26T10:06:29.998Z,30.60
2017-05-26T10:08:58.309Z,30.10
2017-05-26T10:11:26.640Z,30.50
2017-05-26T10:13:54.953Z,30.90
2017-05-26T10:16:23.351Z,31.30
2017-05-26T10:18:51.665Z,31.30
2017-05-26T10:21:19.983Z,31.00
2017-05-26T10:23:48.319Z,30.50
2017-05-26T10:26:16.648Z,29.80
2017-05-26T10:28:44.985Z,29.60
2017-05-26T10:31:13.304Z,29.80
2017-05-26T10:33:41.640Z,29.80
2017-05-26T10:36:09.947Z,29.70
2017-05-26T10:38:38.282Z,29.50
2017-05-26T10:41:06.602Z,29.70
2017-05-26T10:43:34.958Z,30.00
2017-05-26T10:46:03.279Z,30.60
2017-05-26T10:48:31.610Z,31.10
2017-05-26T10:50:59.970Z,30.80
2017-05-26T10:53:28.288Z,30.10
2017-05-26T10:55:56.632Z,29.70
2017-05-26T10:58:24.949Z,29.30
2017-05-26T11:00:53.271Z,29.20
2017-05-26T11:03:21.612Z,29.30
2017-05-26T11:05:49.959Z,30.00
2017-05-26T11:08:18.276Z,30.50
2017-05-26T11:10:46.656Z,30.70
2017-05-26T11:13:15.005Z,30.60
2017-05-26T11:15:43.352Z,30.40
2017-05-26T11:18:11.693Z,29.80
2017-05-26T11:20:39.996Z,29.60
2017-05-26T11:23:08.332Z,30.10
2017-05-26T11:25:36.650Z,30.80
2017-05-26T11:28:04.979Z,31.00
2017-05-26T11:30:33.307Z,31.40
2017-05-26T11:33:01.649Z,31.90
2017-05-26T11:35:29.964Z,31.70
2017-05-26T11:37:58.338Z,31.70
2017-05-26T11:40:26.651Z,31.90
2017-05-26T11:42:54.968Z,31.90
2017-05-26T11:45:23.300Z,31.20
2017-05-26T11:47:51.625Z,30.50
2017-05-26T11:50:19.997Z,29.80
2017-05-26T11:52:48.312Z,29.50
2017-05-26T11:55:16.644Z,29.20
2017-05-26T11:57:44.966Z,29.50
2017-05-26T12:00:13.323Z,29.70
2017-05-26T12:02:41.638Z,29.90
2017-05-26T12:05:09.222Z,29.90
2017-05-26T12:07:37.557Z,30.40
2017-05-26T12:10:05.868Z,30.40
2017-05-26T12:12:34.204Z,30.50
2017-05-26T12:15:02.519Z,30.50
2017-05-26T12:17:30.868Z,30.50
2017-05-26T12:19:59.188Z,30.40
2017-05-26T12:22:27.536Z,30.40
2017-05-26T12:24:55.851Z,30.40
2017-05-26T12:27:24.179Z,30.20
2017-05-26T12:29:52.524Z,29.70
2017-05-26T12:32:20.836Z,29.30
2017-05-26T12:34:49.192Z,28.60
2017-05-26T12:37:17.508Z,28.40
2017-05-26T12:39:45.857Z,28.50
2017-05-26T12:42:14.178Z,28.50
2017-05-26T12:44:42.513Z,28.80
2017-05-26T12:47:10.823Z,29.10
2017-05-26T12:49:39.180Z,29.40
2017-05-26T12:52:07.488Z,29.40
2017-05-26T12:54:35.799Z,29.60
2017-05-26T12:57:04.132Z,30.10
2017-05-26T12:59:32.447Z,29.80
2017-05-26T13:02:00.800Z,29.50
2017-05-26T13:04:29.115Z,29.10
2017-05-26T13:06:57.455Z,28.90
2017-05-26T13:09:25.796Z,29.00
2017-05-26T13:11:54.153Z,29.10
2017-05-26T13:14:22.460Z,29.00
2017-05-26T13:16:50.820Z,28.60
2017-05-26T13:19:19.153Z,28.60
2017-05-26T13:21:47.489Z,28.60
2017-05-26T13:24:15.824Z,28.80
2017-05-26T13:26:44.139Z,29.10
2017-05-26T13:29:12.490Z,29.30
2017-05-26T13:31:40.837Z,29.60
2017-05-26T13:34:09.240Z,29.50
2017-05-26T13:36:37.566Z,29.30
2017-05-26T13:39:05.888Z,28.90
2017-05-26T13:41:34.219Z,28.60
2017-05-26T13:44:02.540Z,28.60
2017-05-26T13:46:30.881Z,28.20
2017-05-26T13:48:59.191Z,27.70
2017-05-26T13:51:27.521Z,27.30
2017-05-26T13:53:55.861Z,27.40
2017-05-26T13:56:24.195Z,27.70
2017-05-26T13:58:52.531Z,28.10
2017-05-26T14:01:20.897Z,28.70
2017-05-26T14:03:49.287Z,29.10
2017-05-26T14:06:17.660Z,28.70
2017-05-26T14:08:46.003Z,28.70
2017-05-26T14:11:14.330Z,28.50
2017-05-26T14:13:42.672Z,28.40
2017-05-26T14:16:10.981Z,28.40
2017-05-26T14:18:39.321Z,28.60
2017-05-26T14:21:07.639Z,28.80
2017-05-26T14:23:35.975Z,28.80
2017-05-26T14:26:04.296Z,28.80
2017-05-26T14:28:32.676Z,28.90
2017-05-26T14:31:01.029Z,29.10
2017-05-26T14:33:29.352Z,29.00
2017-05-26T14:35:57.692Z,28.50
2017-05-26T14:38:26.008Z,28.10
2017-05-26T14:40:54.343Z,27.80
2017-05-26T14:43:22.664Z,27.70
2017-05-26T14:45:50.995Z,27.70
2017-05-26T14:48:19.328Z,27.70
2017-05-26T14:50:47.675Z,27.70
2017-05-26T14:53:16.029Z,27.70
2017-05-26T14:55:44.350Z,27.80
2017-05-26T14:58:12.686Z,28.00
2017-05-26T15:00:40.996Z,28.00
2017-05-26T15:03:09.325Z,27.60
2017-05-26T15:05:37.640Z,27.20
2017-05-26T15:08:05.965Z,27.20
2017-05-26T15:10:34.278Z,27.30
2017-05-26T15:13:02.635Z,27.30
2017-05-26T15:15:30.965Z,27.20
2017-05-26T15:17:59.336Z,27.10
2017-05-26T15:20:27.676Z,27.00
2017-05-26T15:22:56.017Z,27.00
2017-05-26T15:25:24.353Z,27.20
2017-05-26T15:27:52.659Z,27.20
2017-05-26T15:30:20.992Z,27.20
2017-05-26T15:32:49.308Z,26.90
2017-05-26T15:35:17.649Z,26.70
2017-05-26T15:37:45.966Z,26.60
2017-05-26T15:40:14.296Z,26.50
2017-05-26T15:42:42.608Z,26.50
2017-05-26T15:45:10.984Z,26.40
2017-05-26T15:47:39.296Z,26.40
2017-05-26T15:50:07.620Z,26.40
2017-05-26T15:52:35.952Z,26.50
2017-05-26T15:55:04.268Z,26.50
2017-05-26T15:57:32.591Z,26.60
2017-05-26T16:00:00.907Z,26.50
2017-05-26T16:02:29.232Z,26.50
2017-05-26T16:04:57.554Z,26.50
2017-05-26T16:07:25.879Z,26.50
2017-05-26T16:09:54.187Z,26.40
2017-05-26T16:12:22.524Z,26.10
2017-05-26T16:14:50.842Z,25.80
2017-05-26T16:17:19.173Z,25.60
2017-05-26T16:19:47.485Z,25.60
2017-05-26T16:22:15.803Z,25.70
2017-05-26T16:24:44.149Z,25.70
2017-05-26T16:27:12.493Z,25.70
2017-05-26T16:29:40.831Z,25.70
2017-05-26T16:32:09.137Z,25.70
2017-05-26T16:34:36.755Z,25.70
2017-05-26T16:37:05.077Z,25.70
2017-05-26T16:39:33.427Z,25.80
2017-05-26T16:42:01.745Z,25.70
2017-05-26T16:44:30.068Z,25.60
2017-05-26T16:46:58.415Z,25.50
2017-05-26T16:49:26.740Z,25.30
2017-05-26T16:51:55.094Z,25.20
2017-05-26T16:54:23.413Z,25.00
2017-05-26T16:56:51.747Z,24.80
2017-05-26T16:59:20.080Z,24.80
2017-05-26T17:01:48.440Z,24.70
2017-05-26T17:04:16.755Z,24.70
2017-05-26T17:06:45.076Z,24.70
2017-05-26T17:09:13.423Z,24.60
2017-05-26T17:11:41.748Z,24.50
2017-05-26T17:14:10.094Z,24.50
2017-05-26T17:16:38.428Z,24.40
2017-05-26T17:19:06.761Z,24.40
2017-05-26T17:21:35.065Z,24.40
2017-05-26T17:24:03.452Z,24.30
2017-05-26T17:26:31.747Z,24.30
2017-05-26T17:29:00.113Z,24.20
2017-05-26T17:31:28.423Z,24.10
2017-05-26T17:33:56.740Z,24.10
2017-05-26T17:36:25.083Z,24.10
2017-05-26T17:38:53.424Z,24.10
2017-05-26T17:41:21.754Z,24.00
2017-05-26T17:43:50.059Z,23.90
2017-05-26T17:46:18.396Z,23.80
2017-05-26T17:48:46.721Z,23.70
2017-05-26T17:51:15.060Z,23.60
2017-05-26T17:53:43.364Z,23.60
2017-05-26T17:56:11.720Z,23.40
2017-05-26T17:58:40.048Z,23.40
2017-05-26T18:01:08.363Z,23.30
2017-05-26T18:03:36.687Z,23.20
2017-05-26T18:06:05.000Z,23.20
2017-05-26T18:08:33.333Z,23.00
2017-05-26T18:11:01.680Z,22.90
2017-05-26T18:13:30.016Z,22.80
2017-05-26T18:15:58.332Z,22.70
2017-05-26T18:18:26.674Z,22.40
2017-05-26T18:20:54.988Z,22.30
2017-05-26T18:23:23.333Z,22.20
2017-05-26T18:25:51.660Z,22.10
2017-05-26T18:28:19.972Z,22.00
2017-05-26T18:30:48.304Z,22.00
2017-05-26T18:33:16.625Z,21.90
2017-05-26T18:35:44.999Z,21.80
2017-05-26T18:38:13.335Z,21.70
2017-05-26T18:40:41.666Z,21.60
2017-05-26T18:43:09.971Z,21.50
2017-05-26T18:45:38.321Z,21.30
2017-05-26T18:48:06.640Z,21.10
2017-05-26T18:50:34.957Z,20.90
2017-05-26T18:53:03.296Z,20.80
2017-05-26T18:55:31.608Z,20.70
2017-05-26T18:57:59.981Z,20.30
2017-05-26T19:00:28.300Z,20.20
2017-05-26T19:02:56.612Z,20.10
2017-05-26T19:05:24.970Z,19.90
2017-05-26T19:07:53.301Z,19.70
2017-05-26T19:10:21.645Z,19.60
2017-05-26T19:12:50.007Z,19.40
2017-05-26T19:15:18.346Z,19.20
2017-05-26T19:17:46.658Z,19.20
2017-05-26T19:20:14.983Z,19.10
2017-05-26T19:22:43.432Z,18.90
2017-05-26T19:25:11.820Z,18.80
2017-05-26T19:27:40.135Z,18.80
2017-05-26T19:30:08.455Z,18.80
2017-05-26T19:32:36.791Z,18.80
2017-05-26T19:35:05.098Z,18.70
2017-05-26T19:37:33.423Z,18.70
2017-05-26T19:40:01.730Z,18.70
2017-05-26T19:42:30.065Z,18.60
2017-05-26T19:44:58.390Z,18.60
2017-05-26T19:47:26.719Z,18.40
2017-05-26T19:49:55.031Z,18.30
2017-05-26T19:52:23.396Z,18.20
2017-05-26T19:54:51.703Z,18.10
2017-05-26T19:57:20.016Z,18.00
2017-05-26T19:59:48.347Z,18.00
2017-05-26T20:02:16.648Z,17.90
2017-05-26T20:04:44.977Z,17.70
2017-05-26T20:07:13.279Z,17.30
2017-05-26T20:09:41.605Z,17.10
2017-05-26T20:12:09.928Z,16.90
2017-05-26T20:14:38.257Z,16.80
2017-05-26T20:17:06.559Z,16.70
2017-05-26T20:19:34.909Z,16.70
2017-05-26T20:22:03.207Z,16.70
2017-05-26T20:24:31.510Z,16.80
2017-05-26T20:26:59.827Z,16.90
2017-05-26T20:29:28.132Z,17.00
2017-05-26T20:31:56.455Z,17.00
2017-05-26T20:34:24.755Z,17.10
2017-05-26T20:36:53.082Z,17.10
2017-05-26T20:39:21.393Z,17.00
2017-05-26T20:41:49.747Z,17.00
2017-05-26T20:44:18.046Z,16.90
2017-05-26T20:46:46.383Z,16.80
2017-05-26T20:49:14.683Z,16.70
2017-05-26T20:51:42.995Z,16.70
2017-05-26T20:54:11.328Z,16.60
2017-05-26T20:56:39.649Z,16.60
2017-05-26T20:59:07.990Z,16.50
2017-05-26T21:01:36.288Z,16.50
2017-05-26T21:04:03.844Z,16.40
2017-05-26T21:06:32.156Z,16.40
2017-05-26T21:09:00.507Z,16.30
2017-05-26T21:11:28.804Z,16.30
2017-05-26T21:13:57.145Z,16.10
2017-05-26T21:16:25.457Z,15.90
2017-05-26T21:18:53.760Z,15.90
2017-05-26T21:21:22.079Z,15.90
2017-05-26T21:23:50.404Z,15.90
2017-05-26T21:26:18.737Z,16.00
2017-05-26T21:28:47.049Z,15.90
2017-05-26T21:31:15.385Z,15.90
2017-05-26T21:33:43.720Z,15.80
2017-05-26T21:36:12.067Z,15.70
2017-05-26T21:38:40.378Z,15.60
2017-05-26T21:41:08.680Z,15.40
2017-05-26T21:43:37.001Z,15.40
2017-05-26T21:46:05.327Z,15.40
2017-05-26T21:48:33.648Z,15.40
2017-05-26T21:51:01.951Z,15.50
2017-05-26T21:53:30.278Z,15.50
2017-05-26T21:55:58.583Z,15.60
2017-05-26T21:58:26.930Z,15.60
2017-05-26T22:00:55.231Z,15.60
2017-05-26T22:03:23.550Z,15.60
2017-05-26T22:05:51.868Z,15.50
2017-05-26T22:08:20.168Z,15.40
2017-05-26T22:10:48.488Z,15.10
2017-05-26T22:13:16.788Z,14.80
2017-05-26T22:15:45.116Z,14.70
2017-05-26T22:18:13.421Z,14.70
2017-05-26T22:20:41.749Z,14.60
2017-05-26T22:23:10.056Z,14.50
2017-05-26T22:25:38.390Z,14.50
2017-05-26T22:28:06.686Z,14.60
2017-05-26T22:30:34.991Z,14.70
2017-05-26T22:33:03.327Z,14.70
2017-05-26T22:35:31.632Z,14.70
2017-05-26T22:37:59.955Z,14.60
2017-05-26T22:40:28.257Z,14.60
2017-05-26T22:42:56.579Z,14.50
2017-05-26T22:45:24.896Z,14.50
2017-05-26T22:47:53.236Z,14.50
2017-05-26T22:50:21.567Z,14.60
2017-05-26T22:52:49.872Z,14.60
2017-05-26T22:55:18.195Z,14.70
2017-05-26T22:57:46.493Z,14.70
2017-05-26T23:00:14.815Z,14.70
2017-05-26T23:02:43.124Z,14.50
2017-05-26T23:05:11.447Z,14.40
2017-05-26T23:07:39.743Z,14.20
2017-05-26T23:10:08.072Z,14.00
2017-05-26T23:12:36.375Z,13.90
2017-05-26T23:15:04.683Z,13.80
2017-05-26T23:17:33.014Z,13.70
2017-05-26T23:20:01.321Z,13.60
2017-05-26T23:22:29.659Z,13.50
2017-05-26T23:24:57.961Z,13.50
2017-05-26T23:27:26.301Z,13.50
2017-05-26T23:29:54.607Z,13.50
2017-05-26T23:32:22.904Z,13.60
2017-05-26T23:34:51.219Z,13.70
2017-05-26T23:37:19.528Z,13.80
2017-05-26T23:39:47.846Z,13.80
2017-05-26T23:42:16.152Z,13.90
2017-05-26T23:44:44.483Z,13.90
2017-05-26T23:47:12.780Z,13.90
2017-05-26T23:49:41.092Z,13.70
2017-05-26T23:52:09.411Z,13.40
2017-05-26T23:54:37.707Z,13.20
2017-05-26T23:57:06.030Z,13.10
2017-05-26T23:59:34.337Z,13.00
